Weather observations for the past three days for
New Market Airport
| Date | Time (edt) | Wind (kph) | Vis. (km) | Weather | Sky Cond. | Temperature (ºC) | Relative Humidity | Wind Chill (°C) | Heat Index (°C) | Pressure | Precipitation (cm) | ||||||
|---|---|---|---|---|---|---|---|---|---|---|---|---|---|---|---|---|---|
| Air | Dwpt | 6 hour | altimeter (cm) | sea level (mb) | 1 hr | 3 hr | 6 hr | ||||||||||
| Max. | Min. | ||||||||||||||||
| 07 | 09:35 | NE 7 | 16.09 | Overcast | SCT024 OVC030 | 12 | 8.4 | 79% | 76 | 0.0 | |||||||
| 07 | 09:15 | NE 11 | 16.09 | Overcast | OVC026 | 12.1 | 8.6 | 79% | 76 | 0.0 | |||||||
| 07 | 08:55 | NE 13 | 16.09 | Overcast | BKN028 OVC034 | 12.2 | 8.3 | 77% | 76 | 0.0 | |||||||
| 07 | 08:35 | N 7 | 16.09 | Overcast | SCT034 BKN046 OVC049 | 12.6 | 7.2 | 70% | 75.97 | 0.0 | |||||||
| 07 | 08:15 | NE 6 | 16.09 | Overcast | OVC049 | 12.6 | 7.2 | 70% | 75.95 | 0.0 | |||||||
| 07 | 07:55 | Calm | 16.09 | Overcast | BKN049 OVC070 | 12.5 | 7.2 | 14.1 | 11.6 | 70% | 75.95 | 0.0 | |||||
| 07 | 07:35 | NE 6 | 16.09 | Overcast | OVC049 | 12.4 | 7.4 | 72% | 75.95 | 0.0 | |||||||
| 07 | 07:15 | Calm | 16.09 | Overcast | OVC049 | 12.2 | 8.5 | 78% | 75.92 | 0.0 | |||||||
| 07 | 06:55 | NE 6 | 16.09 | Overcast | OVC049 | 11.8 | 9.9 | 88% | 75.9 | 0.0 | |||||||
| 07 | 06:35 | Calm | 16.09 | Overcast | OVC047 | 11.6 | 10.7 | 94% | 75.92 | 0.0 | |||||||
| 07 | 06:15 | Calm | 16.09 | Overcast | SCT040 OVC047 | 12 | 8.1 | 77% | 75.9 | 0.0 | |||||||
| 07 | 05:55 | Calm | 16.09 | Overcast | BKN036 OVC045 | 11.7 | 10.9 | 95% | 75.9 | 0.0 | |||||||
| 07 | 05:35 | Calm | 16.09 | Overcast | BKN034 OVC041 | 12 | 9.1 | 83% | 75.9 | 0.0 | |||||||
| 07 | 05:15 | Calm | 16.09 | Overcast | BKN034 OVC041 | 12.1 | 8.9 | 81% | 75.9 | 0.0 | |||||||
| 07 | 04:55 | NE 6 | 16.09 | Overcast | OVC032 | 12.1 | 8.6 | 79% | 75.87 | 0.0 | |||||||
| 07 | 04:35 | NE 6 | 16.09 | Overcast | OVC029 | 12.2 | 7.9 | 75% | 75.87 | 0.0 | |||||||
| 07 | 04:15 | NE 6 | 16.09 | Overcast | OVC029 | 12.6 | 7.1 | 69% | 75.9 | 0.0 | |||||||
| 07 | 03:55 | Calm | 16.09 | Overcast | OVC027 | 12.5 | 7.4 | 71% | 75.9 | 0.0 | |||||||
| 07 | 03:35 | NE 11 | 16.09 | Overcast | OVC027 | 12.7 | 7.8 | 72% | 75.87 | 0.0 | |||||||
| 07 | 03:15 | NE 9 | 16.09 | Overcast | OVC025 | 13 | 8.5 | 74% | 75.84 | 0.0 | |||||||
| 07 | 02:55 | N 11 | 16.09 | Overcast | OVC025 | 13.3 | 8.9 | 75% | 75.84 | 0.0 | |||||||
| 07 | 02:35 | N 9 | 16.09 | Overcast | OVC025 | 13.7 | 9.9 | 78% | 75.87 | 0.0 | |||||||
| 07 | 02:15 | NE 9 | 16.09 | Overcast | BKN025 OVC031 | 13.8 | 11.7 | 87% | 75.84 | 0.0 | |||||||
| 07 | 01:55 | NE 7 | 16.09 | Overcast | OVC031 | 14.1 | 13 | 93% | 75.87 | 0.0 | 0.03 | ||||||
| 07 | 01:35 | NE 9 | 16.09 | Overcast | OVC031 | 14.5 | 12.3 | 87% | 75.84 | 0.0 | |||||||
| 07 | 01:15 | NE 11 | 16.09 | Overcast | SCT025 OVC031 | 14.8 | 12.2 | 85% | 75.82 | 0.0 | |||||||
| 07 | 00:55 | N 11 | 16.09 | Overcast | SCT025 BKN033 OVC040 | 15 | 13.4 | 90% | 75.82 | 0.0 | |||||||
| 07 | 00:35 | N 9 | 16.09 | Mostly Cloudy | BKN041 BKN095 BKN120 | 15.1 | 14.3 | 95% | 75.79 | 0.0 | |||||||
| 07 | 00:15 | N 9 | 16.09 | Mostly Cloudy | SCT042 SCT048 BKN120 | 14.7 | 14.1 | 96% | 75.74 | 0.0 | |||||||
| 06 | 23:55 | N 9 | 16.09 | Overcast | SCT040 BKN047 OVC050 | 15.5 | 15 | 97% | 75.82 | 0.0 | |||||||
| 06 | 23:35 | N 7 | 16.09 | Overcast | SCT040 OVC047 | 16.2 | 15.3 | 94% | 75.84 | 0.0 | |||||||
| 06 | 23:15 | N 9 | 16.09 | Overcast | OVC049 | 16.3 | 15.7 | 96% | 75.79 | 0.0 | |||||||
| 06 | 22:55 | N 9 | 16.09 | Overcast | OVC047 | 17.1 | 16.2 | 94% | 75.79 | 0.0 | |||||||
| 06 | 22:35 | N 7 | 16.09 | Overcast | SCT044 OVC050 | 0 | 0 | 0% | 75.77 | 0.0 | |||||||
| 06 | 22:15 | N 6 | 16.09 | Overcast | SCT040 BKN050 OVC060 | 16.8 | 16.2 | 96% | 75.72 | 0.0 | |||||||
| 06 | 21:55 | Calm | 16.09 | Overcast | BKN038 BKN050 OVC060 | 17 | 16.4 | 96% | 75.74 | 0.0 | |||||||
| 06 | 21:35 | N 6 | 16.09 | Mostly Cloudy | SCT038 SCT050 BKN065 | 0 | 0 | 0% | 75.74 | 0.0 | |||||||
| 06 | 21:15 | E 6 | 16.09 | Mostly Cloudy | SCT065 BKN075 BKN090 | 0 | 0 | 0% | 75.67 | 0.0 | |||||||
| 06 | 20:55 | Calm | 16.09 | Overcast | BKN075 OVC085 | 0 | 0 | 0% | 75.74 | 0.0 | |||||||
| 06 | 20:35 | Calm | 16.09 | Overcast | SCT050 BKN075 OVC085 | 0 | 0 | 0% | 75.74 | 0.0 | |||||||
| 06 | 20:15 | Calm | 16.09 | Overcast | SCT050 BKN075 OVC085 | 18.6 | 17.2 | 92% | 75.74 | 0.0 | |||||||
| 06 | 19:55 | N 7 | 16.09 | Overcast | SCT048 BKN065 OVC085 | 19 | 18.4 | 96% | 75.69 | 0.0 | 0.2 | ||||||
| 06 | 19:35 | N 6 | 16.09 | Overcast | SCT048 BKN060 OVC075 | 0 | 0 | 0% | 75.67 | 0.0 | |||||||
| 06 | 19:15 | Calm | 16.09 | Overcast | SCT045 BKN050 OVC080 | 0 | 0 | 0% | 75.64 | 0.0 | |||||||
| 06 | 18:55 | Calm | 16.09 | Overcast | SCT038 BKN050 OVC075 | 0 | 0 | 0% | 75.62 | 0.0 | 0.2 | ||||||
| 06 | 18:35 | Calm | 16.09 | Overcast | BKN038 OVC048 | 19.7 | 18.5 | 93% | 75.62 | 0.0 | 0.2 | ||||||
| 06 | 18:15 | NW 7 | 11.27 | Overcast | SCT035 OVC043 | 19.9 | 19.3 | 96% | 75.62 | 0.0 | 0.18 | ||||||
| 06 | 17:55 | Calm | 16.09 | NULL | NULL | 22.7 | 15.6 | 64% | 75.59 | 0.0 | |||||||
| 06 | 17:35 | SW 6 | 16.09 | NULL | NULL | 23.2 | 15.1 | 60% | 75.57 | 0.0 | |||||||
| 06 | 17:15 | SW 13 | 16.09 | NULL | NULL | 23.2 | 14.9 | 60% | 75.57 | 0.0 | |||||||
| 06 | 16:55 | S 7 | 16.09 | NULL | NULL | 23.6 | 14.7 | 58% | 75.54 | 0.0 | |||||||
| 06 | 16:35 | SW 11 | 16.09 | NULL | NULL | 23.5 | 14.8 | 58% | 75.54 | 0.0 | |||||||
| 06 | 16:15 | SW 15 G 26 | 16.09 | NULL | NULL | 23.1 | 15 | 60% | 75.54 | 0.0 | |||||||
| 06 | 15:55 | S 15 G 33 | 16.09 | NULL | NULL | 23 | 14.9 | 60% | 75.54 | 0.0 | |||||||
| 06 | 15:35 | S 15 | 16.09 | NULL | NULL | 22.6 | 15 | 62% | 75.54 | 0.0 | |||||||
| 06 | 15:15 | S 20 G 31 | 16.09 | NULL | NULL | 23.1 | 15 | 60% | 75.54 | 0.0 | |||||||
| 06 | 14:55 | S 20 G 33 | 16.09 | NULL | NULL | 23.5 | 14.8 | 58% | 75.54 | 0.0 | |||||||
| 06 | 14:35 | S 20 G 35 | 16.09 | NULL | NULL | 23 | 14.5 | 59% | 75.59 | 0.0 | |||||||
| 06 | 14:15 | SW 17 G 31 | 16.09 | NULL | NULL | 22.2 | 13.9 | 59% | 75.62 | 0.0 | |||||||
| 06 | 13:55 | SW 15 G 28 | 16.09 | NULL | NULL | 22.5 | 13.7 | 22.6 | 15.5 | 58% | 75.62 | 0.0 | 0.1 | ||||
| 06 | 13:35 | SW 20 G 28 | 16.09 | NULL | NULL | 22.4 | 14.3 | 60% | 75.62 | 0.0 | |||||||
| 06 | 12:55 | S 17 G 26 | 16.09 | NULL | NULL | 20.8 | 13.9 | 65% | 75.64 | 0.0 | |||||||
| 06 | 12:35 | SW 22 G 41 | 16.09 | NULL | NULL | 20.9 | 13.6 | 63% | 75.64 | 0.0 | |||||||
| 06 | 12:15 | SW 11 G 35 | 16.09 | NULL | NULL | 21 | 14 | 64% | 75.64 | 0.0 | |||||||
| 06 | 11:55 | SW 24 G 35 | 16.09 | NULL | NULL | 20.5 | 13.9 | 66% | 75.64 | 0.0 | |||||||
| 06 | 11:35 | S 24 G 35 | 16.09 | NULL | NULL | 19.9 | 14 | 69% | 75.64 | 0.0 | |||||||
| 06 | 11:15 | SW 19 G 35 | 16.09 | NULL | NULL | 18.8 | 14.1 | 74% | 75.64 | 0.0 | |||||||
| 06 | 10:55 | SW 20 G 33 | 16.09 | NULL | NULL | 18.7 | 14.6 | 77% | 75.67 | 0.0 | 0.1 | ||||||
| 06 | 10:35 | SW 19 G 31 | 16.09 | NULL | NULL | 18.2 | 14.8 | 81% | 75.67 | 0.0 | |||||||
| 06 | 10:15 | SW 13 G 26 | 16.09 | NULL | NULL | 17 | 14.8 | 87% | 75.69 | 0.0 | |||||||
| 06 | 09:55 | S 11 | 16.09 | NULL | NULL | 16.5 | 15.3 | 93% | 75.69 | 0.0 | |||||||
| 06 | 09:35 | SW 13 | 16.09 | NULL | NULL | 16.3 | 15.7 | 96% | 75.69 | 0.0 | |||||||
| 06 | 09:15 | SW 6 | 16.09 | NULL | NULL | 16 | 15.4 | 96% | 75.69 | 0.0 | |||||||
| 06 | 08:55 | SW 7 | 16.09 | NULL | NULL | 16 | 15.4 | 96% | 75.69 | 0.0 | 0.1 | ||||||
| 06 | 08:35 | Calm | 16.09 | NULL | NULL | 15.6 | 15 | 96% | 75.69 | 0.0 | 0.08 | ||||||
| 06 | 08:15 | W 7 | 16.09 | NULL | NULL | 16 | 14.7 | 92% | 75.72 | 0.0 | 0.03 | ||||||
| 06 | 07:55 | SW 9 | 16.09 | NULL | NULL | 16.2 | 13.6 | 19.7 | 15.9 | 85% | 75.72 | 0.0 | 0.03 | ||||
| 06 | 07:35 | W 6 | 16.09 | NULL | NULL | 16.3 | 13 | 81% | 75.69 | 0.0 | |||||||
| 06 | 07:15 | Calm | 16.09 | NULL | NULL | 16.6 | 12 | 74% | 75.69 | 0.0 | |||||||
| 06 | 06:55 | SW 7 | 16.09 | NULL | NULL | 17.3 | 11 | 67% | 75.69 | 0.0 | |||||||
| 06 | 06:35 | SW 9 | 16.09 | NULL | NULL | 19.1 | 9.1 | 52% | 75.67 | 0.0 | |||||||
| 06 | 06:15 | SW 9 | 16.09 | NULL | NULL | 19 | 8.6 | 51% | 75.67 | 0.0 | |||||||
| 06 | 05:55 | SW 15 | 16.09 | NULL | NULL | 19 | 8.5 | 51% | 75.64 | 0.0 | |||||||
| 06 | 05:35 | SW 11 | 16.09 | NULL | NULL | 19.2 | 8.2 | 49% | 75.64 | 0.0 | |||||||
| 06 | 05:15 | SW 9 | 16.09 | NULL | NULL | 19.3 | 8 | 48% | 75.64 | 0.0 | |||||||
| 06 | 04:55 | SW 11 | 16.09 | NULL | NULL | 19.4 | 8 | 48% | 75.67 | 0.0 | |||||||
| 06 | 04:35 | SW 9 | 16.09 | NULL | NULL | 19.5 | 7.7 | 47% | 75.67 | 0.0 | |||||||
| 06 | 04:15 | SW 17 G 26 | 16.09 | NULL | NULL | 19.6 | 7.4 | 45% | 75.67 | 0.0 | |||||||
| 06 | 03:55 | SW 17 G 30 | 16.09 | NULL | NULL | 19.7 | 7 | 44% | 75.67 | 0.0 | |||||||
| 06 | 03:35 | SW 17 | 16.09 | NULL | NULL | 19.5 | 6.8 | 44% | 75.69 | 0.0 | |||||||
| 06 | 03:15 | SW 13 | 16.09 | NULL | NULL | 19.5 | 6.8 | 44% | 75.67 | 0.0 | |||||||
| 06 | 02:55 | SW 9 | 16.09 | NULL | NULL | 19.3 | 6.6 | 44% | 75.67 | 0.0 | |||||||
| 06 | 02:15 | Calm | 16.09 | NULL | NULL | 16.3 | 8 | 58% | 75.72 | 0.0 | |||||||
| 06 | 01:55 | SW 6 | 16.09 | NULL | NULL | 18.1 | 6.8 | 23.7 | 17.9 | 48% | 75.77 | 0.0 | |||||
| 06 | 01:35 | Calm | 16.09 | NULL | NULL | 18.4 | 6.4 | 46% | 75.77 | 0.0 | |||||||
| 06 | 01:15 | SW 7 | 16.09 | NULL | NULL | 19.1 | 5.8 | 42% | 75.79 | 0.0 | |||||||
| 06 | 00:55 | SW 11 | 16.09 | NULL | NULL | 19.5 | 5.7 | 41% | 75.79 | 0.0 | |||||||
| 06 | 00:35 | SW 11 | 16.09 | NULL | NULL | 20 | 5.6 | 39% | 75.77 | 0.0 | |||||||
| 06 | 00:15 | SW 11 | 16.09 | NULL | NULL | 20.3 | 5.5 | 38% | 75.79 | 0.0 | |||||||
| 05 | 23:55 | SW 11 | 16.09 | NULL | NULL | 20.5 | 5.4 | 37% | 75.79 | 0.0 | |||||||
| 05 | 23:35 | SW 15 | 16.09 | NULL | NULL | 20.9 | 5.3 | 36% | 75.79 | 0.0 | |||||||
| 05 | 23:15 | SW 9 | 16.09 | NULL | NULL | 21 | 5.2 | 36% | 75.79 | 0.0 | |||||||
| 05 | 22:55 | SW 13 | 16.09 | NULL | NULL | 21.7 | 5.1 | 34% | 75.79 | 0.0 | |||||||
| 05 | 22:35 | SW 13 | 16.09 | NULL | NULL | 21.9 | 4.9 | 33% | 75.82 | 0.0 | |||||||
| 05 | 22:15 | SW 11 | 16.09 | NULL | NULL | 21.9 | 4.5 | 32% | 75.82 | 0.0 | |||||||
| 05 | 21:55 | SW 9 | 16.09 | NULL | NULL | 21.9 | 4.2 | 32% | 75.79 | 0.0 | |||||||
| 05 | 21:35 | S 11 | 16.09 | NULL | NULL | 22.1 | 4.1 | 31% | 75.79 | 0.0 | |||||||
| 05 | 21:15 | S 13 | 16.09 | NULL | NULL | 22.1 | 4.4 | 32% | 75.77 | 0.0 | |||||||
| 05 | 20:55 | S 15 | 16.09 | NULL | NULL | 22.3 | 4.3 | 31% | 75.77 | 0.0 | |||||||
| 05 | 20:35 | S 15 | 16.09 | NULL | NULL | 22.8 | 4.1 | 30% | 75.77 | 0.0 | |||||||
| 05 | 20:15 | S 17 G 28 | 16.09 | NULL | NULL | 23.1 | 3.8 | 28% | 75.74 | 0.0 | |||||||
| 05 | 19:55 | S 19 G 31 | 16.09 | NULL | NULL | 24 | 3 | 28 | 24 | 25% | 25 | 75.72 | 0.0 | ||||
| 05 | 19:35 | S 26 G 35 | 16.09 | NULL | NULL | 24.9 | 2.4 | 23% | 25 | 75.72 | 0.0 | ||||||
| 05 | 19:15 | S 26 G 37 | 16.09 | NULL | NULL | 25 | 2.5 | 23% | 25 | 75.69 | 0.0 | ||||||
| 05 | 18:55 | S 20 G 35 | 16.09 | NULL | NULL | 25 | 3.4 | 25% | 25 | 75.72 | 0.0 | ||||||
| 05 | 18:35 | SW 22 G 43 | 16.09 | NULL | NULL | 26.3 | 3.9 | 24% | 26 | 75.72 | 0.0 | ||||||
| 05 | 18:15 | S 20 G 43 | 16.09 | NULL | NULL | 25.7 | 4.7 | 26% | 26 | 75.72 | 0.0 | ||||||
| 05 | 17:55 | S 26 G 37 | 16.09 | NULL | NULL | 26.5 | 4.3 | 24% | 26 | 75.69 | 0.0 | ||||||
| 05 | 17:35 | S 17 G 39 | 16.09 | NULL | NULL | 27.5 | 2.2 | 19% | 26 | 75.69 | 0.0 | ||||||
| 05 | 17:15 | SW 24 G 46 | 16.09 | NULL | NULL | 27.3 | 2.1 | 20% | 26 | 75.69 | 0.0 | ||||||
| 05 | 16:55 | SW 20 G 44 | 16.09 | NULL | NULL | 27 | 2.3 | 20% | 26 | 75.69 | 0.0 | ||||||
| 05 | 16:35 | S 22 G 46 | 16.09 | NULL | NULL | 26.5 | 1.9 | 20% | 26 | 75.69 | 0.0 | ||||||
| 05 | 16:15 | S 26 G 46 | 16.09 | NULL | NULL | 27.7 | 3.4 | 21% | 27 | 75.69 | 0.0 | ||||||
| 05 | 15:55 | S 20 G 46 | 16.09 | NULL | NULL | 27.2 | 3.9 | 22% | 26 | 75.72 | 0.0 | ||||||
| 05 | 15:35 | S 19 G 46 | 16.09 | NULL | NULL | 28 | 4.5 | 22% | 27 | 75.72 | 0.0 | ||||||
| 05 | 15:15 | S 22 G 46 | 16.09 | NULL | NULL | 27.6 | 4 | 22% | 27 | 75.72 | 0.0 | ||||||
| 05 | 14:55 | S 28 G 46 | 16.09 | NULL | NULL | 27.3 | 4.5 | 23% | 26 | 75.74 | 0.0 | ||||||
| 05 | 14:15 | SW 24 G 54 | 16.09 | NULL | NULL | 27.3 | 3.8 | 22% | 26 | 75.77 | 0.0 | ||||||
| 05 | 13:55 | SW 24 G 52 | 16.09 | NULL | NULL | 27 | 4.5 | 27.3 | 16.7 | 24% | 26 | 75.79 | 0.0 | ||||
| 05 | 13:35 | S 22 G 41 | 16.09 | NULL | NULL | 27.3 | 5.5 | 25% | 26 | 75.79 | 0.0 | ||||||
| 05 | 13:15 | S 24 G 37 | 16.09 | NULL | NULL | 26.9 | 5.5 | 25% | 26 | 75.82 | 0.0 | ||||||
| 05 | 12:55 | S 28 G 33 | 16.09 | NULL | NULL | 26.4 | 6 | 27% | 26 | 75.84 | 0.0 | ||||||
| 05 | 12:35 | S 17 G 31 | 16.09 | NULL | NULL | 26.1 | 5.9 | 27% | 26 | 75.84 | 0.0 | ||||||
| 05 | 12:15 | SW 17 G 31 | 16.09 | NULL | NULL | 25.7 | 4.9 | 26% | 26 | 75.87 | 0.0 | ||||||
| 05 | 11:55 | S 17 G 28 | 16.09 | NULL | NULL | 25.9 | 6.1 | 28% | 26 | 75.9 | 0.0 | ||||||
| 05 | 11:35 | SW 19 G 30 | 16.09 | NULL | NULL | 25.7 | 6.3 | 29% | 26 | 75.9 | 0.0 | ||||||
| 05 | 11:15 | SW 20 G 31 | 16.09 | NULL | NULL | 25.2 | 6.4 | 30% | 25 | 75.92 | 0.0 | ||||||
| 05 | 10:55 | SW 13 G 28 | 16.09 | NULL | NULL | 24.2 | 6.8 | 33% | 25 | 75.92 | 0.0 | ||||||
| 05 | 10:35 | SW 19 G 28 | 16.09 | NULL | NULL | 23.7 | 7 | 34% | 75.92 | 0.0 | |||||||
| 05 | 10:15 | SW 17 | 16.09 | NULL | NULL | 23.1 | 7.8 | 38% | 75.92 | 0.0 | |||||||
| 05 | 09:55 | S 17 | 16.09 | NULL | NULL | 22.8 | 7 | 36% | 75.95 | 0.0 | |||||||
| 05 | 09:35 | S 9 | 16.09 | NULL | NULL | 22.1 | 7.6 | 39% | 75.95 | 0.0 | |||||||
| 05 | 09:15 | Calm | 16.09 | NULL | NULL | 21 | 8.2 | 44% | 75.95 | 0.0 | |||||||
| 05 | 08:55 | Calm | 16.09 | NULL | NULL | 19.6 | 8.4 | 49% | 75.97 | 0.0 | |||||||
| 05 | 08:35 | Calm | 16.09 | NULL | NULL | 18.3 | 7.9 | 51% | 75.97 | 0.0 | |||||||
| 05 | 08:15 | Calm | 16.09 | NULL | NULL | 17.5 | 7.8 | 53% | 76 | 0.0 | |||||||
| 05 | 07:55 | Calm | 16.09 | Fair | CLR | 16.5 | 7.1 | 16.5 | 8.6 | 54% | 76 | 0.0 | |||||
| 05 | 07:35 | SW 6 | 16.09 | Fair | CLR | 14 | 8.5 | 70% | 75.97 | 0.0 | |||||||
| 05 | 07:15 | Calm | 16.09 | NULL | NULL | 13 | 7.7 | 70% | 75.97 | 0.0 | |||||||
| 05 | 06:55 | SW 9 | 16.09 | NULL | NULL | 12.8 | 7.6 | 71% | 75.95 | 0.0 | |||||||
| 05 | 06:35 | W 11 | 16.09 | NULL | NULL | 15 | 6.6 | 57% | 75.92 | 0.0 | |||||||
| 05 | 06:15 | W 17 | 16.09 | NULL | NULL | 15.2 | 6.5 | 56% | 75.92 | 0.0 | |||||||
| 05 | 05:55 | W 13 | 16.09 | NULL | NULL | 15 | 6.8 | 58% | 75.92 | 0.0 | |||||||
| 05 | 05:35 | SW 11 | 16.09 | NULL | NULL | 14.6 | 7.1 | 61% | 75.92 | 0.0 | |||||||
| 05 | 05:15 | SW 7 | 16.09 | NULL | NULL | 14.9 | 7.1 | 60% | 75.92 | 0.0 | |||||||
| 05 | 04:55 | W 13 | 16.09 | NULL | NULL | 15 | 7.4 | 61% | 75.9 | 0.0 | |||||||
| 05 | 04:35 | W 7 | 16.09 | NULL | NULL | 13.7 | 7.9 | 68% | 75.9 | 0.0 | |||||||
| 05 | 04:15 | SW 7 | 16.09 | NULL | NULL | 10.2 | 9.6 | 96% | 75.9 | 0.0 | |||||||
| 05 | 03:55 | Calm | 16.09 | NULL | NULL | 12 | 8.4 | 79% | 75.87 | 0.0 | |||||||
| 05 | 03:35 | Calm | 16.09 | NULL | NULL | 13 | 8.9 | 76% | 75.87 | 0.0 | |||||||
| 05 | 03:15 | SW 6 | 16.09 | NULL | NULL | 11.5 | 9.8 | 89% | 75.87 | 0.0 | |||||||
| 05 | 02:55 | W 7 | 16.09 | NULL | NULL | 12.1 | 10.3 | 89% | 75.87 | 0.0 | |||||||
| 05 | 02:35 | Calm | 16.09 | NULL | NULL | 0 | 0 | 0% | 75.87 | 0.0 | |||||||
| 05 | 02:15 | Calm | 16.09 | NULL | NULL | 9.1 | 8.5 | 96% | 75.87 | 0.0 | |||||||
| 05 | 01:55 | Calm | 16.09 | NULL | NULL | 8.9 | 7.9 | 18.8 | 8.9 | 94% | 75.87 | 0.0 | |||||
| 05 | 01:35 | SW 7 | 16.09 | NULL | NULL | 10.6 | 10 | 96% | 75.87 | 0.0 | |||||||
| 05 | 01:15 | Calm | 16.09 | NULL | NULL | 11 | 10.4 | 96% | 75.87 | 0.0 | |||||||
| 05 | 00:55 | Calm | 16.09 | NULL | NULL | 11 | 10.4 | 96% | 75.87 | 0.0 | |||||||
| 05 | 00:35 | Calm | 16.09 | NULL | NULL | 11.4 | 10.8 | 96% | 75.87 | 0.0 | |||||||
| 05 | 00:15 | Calm | 16.09 | NULL | NULL | 11.9 | 11.3 | 96% | 75.87 | 0.0 | |||||||
| 04 | 23:55 | Calm | 16.09 | NULL | NULL | 11.3 | 10.7 | 96% | 75.87 | 0.0 | |||||||
| 04 | 23:35 | Calm | 16.09 | NULL | NULL | 13 | 11.7 | 92% | 75.87 | 0.0 | |||||||
| 04 | 23:15 | SW 6 | 16.09 | NULL | NULL | 14.7 | 9.4 | 71% | 75.87 | 0.0 | |||||||
| 04 | 22:55 | SW 9 | 16.09 | NULL | NULL | 16 | 9.3 | 65% | 75.87 | 0.0 | |||||||
| 04 | 22:35 | SW 7 | 16.09 | NULL | NULL | 16.2 | 9.5 | 65% | 75.9 | 0.0 | |||||||
| 04 | 22:15 | SW 11 | 16.09 | NULL | NULL | 16.2 | 9.6 | 65% | 75.9 | 0.0 | |||||||
| 04 | 21:55 | W 9 | 16.09 | NULL | NULL | 16.3 | 10 | 66% | 75.87 | 0.0 | |||||||
| 04 | 21:35 | SW 7 | 16.09 | NULL | NULL | 16.4 | 10.2 | 67% | 75.87 | 0.0 | |||||||
| 04 | 21:15 | SW 9 | 16.09 | NULL | NULL | 17.6 | 9.6 | 60% | 75.87 | 0.0 | |||||||
| 04 | 20:55 | SW 9 | 16.09 | NULL | NULL | 17.6 | 9.7 | 60% | 75.82 | 0.0 | |||||||
| 04 | 20:35 | SW 9 | 16.09 | NULL | NULL | 17.9 | 9.6 | 59% | 75.82 | 0.0 | |||||||
| 04 | 20:15 | SW 6 | 16.09 | NULL | NULL | 18 | 9.8 | 59% | 75.79 | 0.0 | |||||||
| 04 | 19:55 | SW 6 | 16.09 | NULL | NULL | 18.2 | 10.8 | 24.9 | 15.7 | 62% | 75.79 | 0.0 | 0.03 | ||||
| 04 | 19:35 | Calm | 16.09 | NULL | NULL | 15.8 | 15.2 | 96% | 75.77 | 0.0 | |||||||
| 04 | 19:15 | Calm | 16.09 | NULL | NULL | 16.3 | 15.7 | 96% | 75.77 | 0.0 | |||||||
| 04 | 18:55 | S 9 | 16.09 | NULL | NULL | 18.5 | 11.5 | 64% | 75.77 | 0.0 | 0.03 | ||||||
| 04 | 18:35 | Calm | 16.09 | NULL | NULL | 17.4 | 16.4 | 94% | 75.79 | 0.0 | |||||||
| 04 | 18:15 | S 7 | 11.27 | NULL | NULL | 22 | 8.5 | 42% | 75.77 | 0.0 | |||||||
| 04 | 17:55 | S 17 G 33 | 16.09 | NULL | NULL | 22.8 | 6.1 | 34% | 75.72 | 0.0 | |||||||
| 04 | 17:35 | S 19 G 37 | 16.09 | NULL | NULL | 22.7 | 5.6 | 33% | 75.74 | 0.0 | |||||||
| 04 | 17:15 | S 17 G 30 | 16.09 | NULL | NULL | 24.6 | 5.3 | 29% | 25 | 75.69 | 0.0 | ||||||
| 04 | 16:55 | S 13 G 31 | 16.09 | NULL | NULL | 23.9 | 4.5 | 28% | 25 | 75.69 | 0.0 | ||||||
| 04 | 16:35 | SW 22 G 33 | 16.09 | NULL | NULL | 24.7 | 4.5 | 27% | 25 | 75.72 | 0.0 | ||||||
| 04 | 16:15 | S 22 G 33 | 16.09 | NULL | NULL | 24.5 | 4.7 | 28% | 25 | 75.72 | 0.0 | ||||||
| 04 | 15:55 | SW 20 G 28 | 16.09 | NULL | NULL | 24.9 | 4.3 | 26% | 25 | 75.74 | 0.0 | ||||||
| 04 | 15:35 | S 20 G 43 | 16.09 | NULL | NULL | 23.9 | 6.1 | 32% | 25 | 75.77 | 0.0 | ||||||
| 04 | 15:15 | S 26 G 35 | 16.09 | NULL | NULL | 24 | 5.1 | 30% | 25 | 75.79 | 0.0 | ||||||
| 04 | 14:55 | S 20 G 33 | 16.09 | NULL | NULL | 23 | 4.5 | 30% | 75.82 | 0.0 | |||||||
| 04 | 14:35 | S 20 G 33 | 16.09 | NULL | NULL | 23.7 | 3.6 | 27% | 75.82 | 0.0 | |||||||
| 04 | 14:15 | S 20 G 33 | 16.09 | NULL | NULL | 23.6 | 3.1 | 26% | 75.82 | 0.0 | |||||||
| 04 | 13:55 | S 19 G 37 | 16.09 | NULL | NULL | 23.9 | 3.4 | 23.9 | 11.9 | 26% | 25 | 75.84 | 0.0 | ||||
| 04 | 13:35 | S 19 G 28 | 16.09 | NULL | NULL | 23.1 | 3.7 | 28% | 75.87 | 0.0 | |||||||
| 04 | 13:15 | S 20 G 31 | 16.09 | NULL | NULL | 22.2 | 2.3 | 27% | 75.9 | 0.0 | |||||||
| 04 | 12:55 | S 19 G 37 | 16.09 | NULL | NULL | 22.9 | 2.7 | 27% | 75.92 | 0.0 | |||||||
| 04 | 12:35 | SW 15 | 16.09 | NULL | NULL | 22.5 | 2.6 | 27% | 75.95 | 0.0 | |||||||
| 04 | 12:15 | S 17 G 26 | 16.09 | NULL | NULL | 21.6 | 3.3 | 30% | 75.97 | 0.0 | |||||||
| 04 | 11:55 | SW 24 | 16.09 | NULL | NULL | 21.1 | 2.4 | 29% | 76 | 0.0 | |||||||
| 04 | 11:35 | S 19 | 16.09 | NULL | NULL | 20.2 | 2.5 | 31% | 76.02 | 0.0 | |||||||
| 04 | 11:15 | S 13 | 16.09 | NULL | NULL | 19.6 | 2.8 | 33% | 76.05 | 0.0 | |||||||
| 04 | 10:55 | SW 17 | 16.09 | NULL | NULL | 19.1 | 2.9 | 34% | 76.05 | 0.0 | |||||||
| 04 | 10:35 | SW 13 | 16.09 | NULL | NULL | 18.2 | 1.8 | 34% | 76.05 | 0.0 | |||||||
| 04 | 10:15 | SW 11 | 16.09 | NULL | NULL | 17.6 | 2.3 | 36% | 76.05 | 0.0 | |||||||
| 04 | 09:55 | S 15 | 16.09 | NULL | NULL | 16.8 | 2.4 | 38% | 76.07 | 0.0 | |||||||
| Date | Time (edt) | Wind (kph) | Vis. (km) | Weather | Sky Cond. | Air | Dwpt | Max. | Min. | Relative Humidity | Wind Chill (°C) | Heat Index (°C) | altimeter (cm) | sea level (mb) | 1 hr | 3 hr | 6 hr |
| 6 hour | |||||||||||||||||
| Temperature (ºC) | Pressure | Precipitation (cm) | |||||||||||||||